Terminal Aerodrome Forecast
Issued by NWS

Home | Current Version | Previous Version | Text Only | Print | Product List | Glossary On
Versions: 1 2 3 4 5 6 7 8 9 10 11 12 13
000
FTUS43 KOAX 232335
TAFBFF
TAF
KBFF 232335Z 2400/2424 03005KT P6SM VCSH SCT020 OVC050
     FM240300 36007KT 2SM -SN SCT007 OVC015
     FM240900 33010KT 1SM -SN OVC007
     FM241800 33018G28KT 2SM -SHSN SCT007 OVC015=

USA.gov is the U.S. government's official web portal to all federal, state and local government web resources and services.